createdAt,value
2019-03-10T00:02:37.232Z,88.22
2019-03-10T00:05:25.282Z,86.74
2019-03-10T00:08:13.439Z,87.22
2019-03-10T00:11:01.793Z,87.95
2019-03-10T00:13:50.169Z,86.93
2019-03-10T00:16:38.147Z,86.66
2019-03-10T00:19:26.526Z,87.85
2019-03-10T00:22:15.130Z,89.95
2019-03-10T00:25:02.948Z,88.97
2019-03-10T00:27:50.981Z,88.61
2019-03-10T00:30:38.708Z,89.15
2019-03-10T00:33:26.417Z,88.50
2019-03-10T00:36:14.904Z,89.48
2019-03-10T00:39:07.263Z,93.25
2019-03-10T00:42:13.629Z,93.45
2019-03-10T00:45:19.568Z,92.32
2019-03-10T00:48:39.025Z,92.02
2019-03-10T00:51:44.548Z,90.16
2019-03-10T00:54:33.453Z,90.20
2019-03-10T00:57:21.520Z,89.61
2019-03-10T01:00:15.442Z,89.12
2019-03-10T01:03:03.411Z,90.16
2019-03-10T01:05:51.880Z,92.71
2019-03-10T01:08:39.686Z,92.29
2019-03-10T01:11:28.221Z,94.14
2019-03-10T01:14:15.889Z,95.52
2019-03-10T01:17:03.883Z,94.96
2019-03-10T01:19:52.424Z,93.37
2019-03-10T01:22:40.312Z,91.21
2019-03-10T01:25:28.154Z,90.98
2019-03-10T01:28:16.540Z,91.20
2019-03-10T01:31:17.433Z,90.23
2019-03-10T01:34:40.176Z,90.17
2019-03-10T01:37:27.674Z,91.92
2019-03-10T01:40:15.506Z,91.50
2019-03-10T01:43:02.928Z,91.59
2019-03-10T01:45:51.241Z,91.28
2019-03-10T01:48:39.582Z,90.84
2019-03-10T01:51:28.012Z,92.29
2019-03-10T01:54:16.068Z,92.70
2019-03-10T01:57:05.650Z,94.01
2019-03-10T01:59:54.165Z,93.92
2019-03-10T02:02:41.678Z,92.08
2019-03-10T02:05:29.780Z,91.81
2019-03-10T02:08:18.245Z,93.02
2019-03-10T02:11:06.637Z,92.82
2019-03-10T02:13:54.677Z,91.67
2019-03-10T02:16:43.067Z,90.65
2019-03-10T02:19:31.060Z,89.84
2019-03-10T02:22:19.802Z,91.49
2019-03-10T02:25:08.326Z,90.80
2019-03-10T02:27:56.744Z,92.91
2019-03-10T02:30:44.791Z,92.34
2019-03-10T02:33:32.775Z,93.35
2019-03-10T02:36:20.987Z,92.88
2019-03-10T02:39:09.411Z,90.20
2019-03-10T02:41:57.503Z,90.54
2019-03-10T02:44:45.699Z,90.11
2019-03-10T02:47:33.936Z,90.26
2019-03-10T02:50:21.950Z,91.30
2019-03-10T02:53:10.408Z,93.31
2019-03-10T02:55:58.301Z,92.83
2019-03-10T02:58:47.492Z,91.72
2019-03-10T03:01:35.635Z,91.23
2019-03-10T03:04:23.623Z,90.34
2019-03-10T03:07:11.773Z,89.70
2019-03-10T03:09:59.539Z,90.29
2019-03-10T03:12:47.839Z,90.00
2019-03-10T03:15:35.604Z,90.60
2019-03-10T03:18:23.650Z,90.17
2019-03-10T03:21:12.125Z,90.04
2019-03-10T03:24:00.633Z,91.03
2019-03-10T03:26:49.015Z,91.67
2019-03-10T03:29:37.396Z,92.28
2019-03-10T03:32:25.489Z,93.63
2019-03-10T03:35:31.912Z,94.16
2019-03-10T03:38:22.051Z,93.81
2019-03-10T03:41:11.184Z,94.15
2019-03-10T03:43:58.953Z,92.71
2019-03-10T03:46:47.118Z,92.21
2019-03-10T03:49:34.952Z,91.16
2019-03-10T03:52:23.448Z,91.67
2019-03-10T03:55:11.639Z,91.18
2019-03-10T03:57:59.680Z,91.45
2019-03-10T04:00:52.853Z,91.28
2019-03-10T04:03:40.300Z,91.74
2019-03-10T04:06:28.463Z,87.64
2019-03-10T04:09:16.745Z,84.59
2019-03-10T04:12:05.194Z,81.48
2019-03-10T04:14:52.672Z,77.46
2019-03-10T04:17:41.214Z,69.61
2019-03-10T04:20:29.163Z,67.53
2019-03-10T04:23:16.915Z,67.31
2019-03-10T04:26:05.249Z,67.84
2019-03-10T04:28:53.130Z,67.81
2019-03-10T04:31:41.433Z,68.83
2019-03-10T04:34:29.837Z,69.97
2019-03-10T04:37:18.202Z,74.76
2019-03-10T04:40:06.968Z,76.53
2019-03-10T04:42:55.442Z,70.95
2019-03-10T04:45:43.892Z,65.82
2019-03-10T04:48:31.987Z,63.53
2019-03-10T04:51:20.851Z,62.59
2019-03-10T04:54:09.046Z,63.04
2019-03-10T04:57:06.393Z,63.84
2019-03-10T04:59:54.240Z,63.60
2019-03-10T05:02:44.015Z,65.35
2019-03-10T05:05:32.117Z,71.03
2019-03-10T05:08:20.155Z,75.30
2019-03-10T05:11:08.062Z,77.98
2019-03-10T05:13:56.281Z,81.01
2019-03-10T05:16:44.780Z,82.13
2019-03-10T05:19:32.976Z,82.74
2019-03-10T05:22:21.354Z,83.83
2019-03-10T05:25:09.442Z,84.24
2019-03-10T05:27:57.864Z,84.33
2019-03-10T05:30:46.307Z,84.36
2019-03-10T05:33:34.353Z,83.56
2019-03-10T05:36:22.828Z,79.05
2019-03-10T05:39:11.122Z,69.31
2019-03-10T05:41:59.232Z,62.65
2019-03-10T05:44:50.429Z,60.18
2019-03-10T05:47:38.784Z,55.83
2019-03-10T05:50:26.925Z,54.24
2019-03-10T05:53:15.430Z,53.06
2019-03-10T05:56:03.571Z,52.27
2019-03-10T05:58:51.777Z,52.98
2019-03-10T06:01:39.510Z,52.13
2019-03-10T06:04:29.228Z,51.78
2019-03-10T06:07:17.853Z,50.92
2019-03-10T06:10:07.118Z,50.33
2019-03-10T06:12:56.357Z,50.50
2019-03-10T06:15:45.630Z,48.53
2019-03-10T06:18:34.830Z,47.39
2019-03-10T06:21:24.255Z,46.63
2019-03-10T06:24:13.951Z,45.68
2019-03-10T06:27:03.210Z,46.00
2019-03-10T06:29:51.464Z,45.20
2019-03-10T06:32:39.177Z,45.37
2019-03-10T06:35:27.648Z,44.75
2019-03-10T06:38:16.194Z,45.33
2019-03-10T06:41:05.619Z,44.70
2019-03-10T06:43:55.498Z,44.92
2019-03-10T06:46:44.258Z,44.18
2019-03-10T06:49:33.285Z,43.26
2019-03-10T06:52:22.740Z,43.70
2019-03-10T06:55:12.211Z,43.98
2019-03-10T06:58:02.012Z,43.22
2019-03-10T07:00:51.356Z,43.04
2019-03-10T07:03:40.448Z,43.22
2019-03-10T07:06:30.594Z,42.71
2019-03-10T07:09:19.923Z,42.26
2019-03-10T07:12:10.443Z,42.58
2019-03-10T07:15:00.212Z,42.83
2019-03-10T07:17:49.431Z,43.01
2019-03-10T07:20:38.784Z,42.13
2019-03-10T07:23:28.301Z,42.18
2019-03-10T07:26:17.755Z,42.17
2019-03-10T07:29:29.164Z,41.72
2019-03-10T07:32:37.294Z,42.48
2019-03-10T07:35:44.171Z,43.21
2019-03-10T07:38:40.967Z,42.62
2019-03-10T07:41:48.358Z,41.77
2019-03-10T07:45:14.971Z,41.71
2019-03-10T07:48:25.869Z,41.66
2019-03-10T07:51:31.121Z,40.47
2019-03-10T07:54:38.156Z,38.84
2019-03-10T07:57:43.700Z,37.70
2019-03-10T08:00:51.757Z,37.60
2019-03-10T08:03:55.197Z,38.04
2019-03-10T08:06:51.151Z,38.77
2019-03-10T08:10:12.175Z,37.89
2019-03-10T08:13:14.164Z,38.46
2019-03-10T08:16:28.553Z,38.30
2019-03-10T08:19:42.797Z,37.81
2019-03-10T08:23:02.709Z,37.73
2019-03-10T08:26:00.808Z,37.44
2019-03-10T08:29:12.124Z,37.17
2019-03-10T08:32:20.913Z,37.15
2019-03-10T08:35:32.151Z,37.28
2019-03-10T08:38:43.229Z,36.36
2019-03-10T08:42:00.212Z,36.79
2019-03-10T08:45:03.975Z,37.20
2019-03-10T08:48:16.784Z,35.75
2019-03-10T08:51:24.644Z,35.35
2019-03-10T08:54:18.703Z,35.70
2019-03-10T08:57:25.330Z,34.51
2019-03-10T09:00:37.830Z,34.88
2019-03-10T09:03:55.102Z,35.02
2019-03-10T09:07:03.548Z,35.85
2019-03-10T09:10:17.954Z,34.98
2019-03-10T09:13:31.562Z,34.21
2019-03-10T09:16:43.595Z,34.88
2019-03-10T09:19:52.110Z,34.42
2019-03-10T09:22:53.091Z,34.52
2019-03-10T09:25:56.292Z,34.27
2019-03-10T09:29:02.911Z,34.41
2019-03-10T09:32:16.833Z,32.90
2019-03-10T09:35:20.175Z,32.12
2019-03-10T09:38:19.749Z,33.51
2019-03-10T09:41:21.550Z,32.61
2019-03-10T09:44:28.352Z,32.27
2019-03-10T09:47:29.276Z,32.27
2019-03-10T09:50:43.632Z,32.21
2019-03-10T09:53:58.093Z,33.55
2019-03-10T09:57:03.405Z,30.78
2019-03-10T10:00:13.899Z,31.79
2019-03-10T10:03:11.526Z,30.82
2019-03-10T10:06:18.753Z,30.09
2019-03-10T10:09:45.822Z,28.99
2019-03-10T10:12:46.353Z,28.21
2019-03-10T10:15:53.699Z,28.44
2019-03-10T10:19:05.003Z,28.21
2019-03-10T10:22:13.885Z,27.97
2019-03-10T10:25:17.378Z,27.44
2019-03-10T10:28:15.355Z,28.13
2019-03-10T10:31:15.272Z,27.22
2019-03-10T10:34:23.281Z,24.93
2019-03-10T10:37:40.403Z,25.99
2019-03-10T10:40:48.279Z,24.85
2019-03-10T10:44:05.866Z,26.30
2019-03-10T10:47:06.639Z,25.55
2019-03-10T10:50:23.968Z,25.93
2019-03-10T10:53:25.954Z,25.14
2019-03-10T10:56:32.366Z,24.05
2019-03-10T10:59:40.526Z,24.15
2019-03-10T11:02:38.954Z,23.80
2019-03-10T11:05:35.559Z,22.95
2019-03-10T11:08:38.442Z,23.49
2019-03-10T11:11:45.599Z,22.48
2019-03-10T11:14:57.039Z,22.50
2019-03-10T11:18:17.219Z,21.52
2019-03-10T11:21:21.311Z,20.45
2019-03-10T11:24:26.375Z,20.88
2019-03-10T11:27:27.408Z,21.21
2019-03-10T11:30:41.896Z,21.55
2019-03-10T11:33:49.093Z,18.92
2019-03-10T11:37:04.561Z,20.56
2019-03-10T11:40:03.371Z,20.20
2019-03-10T11:43:10.061Z,20.85
2019-03-10T11:46:29.889Z,19.19
2019-03-10T11:49:36.798Z,20.47
2019-03-10T11:52:44.794Z,20.66
2019-03-10T11:55:53.843Z,19.95
2019-03-10T11:58:57.394Z,20.65
2019-03-10T12:02:15.996Z,21.39
2019-03-10T12:05:18.422Z,20.30
2019-03-10T12:08:32.150Z,20.49
2019-03-10T12:11:20.940Z,22.45
2019-03-10T12:14:10.189Z,21.27
2019-03-10T12:16:59.473Z,21.21
2019-03-10T12:19:48.794Z,21.25
2019-03-10T12:22:38.200Z,21.08
2019-03-10T12:25:28.771Z,22.22
2019-03-10T12:28:18.146Z,21.29
2019-03-10T12:31:07.574Z,20.71
2019-03-10T12:33:56.953Z,21.11
2019-03-10T12:36:46.337Z,21.10
2019-03-10T12:39:36.044Z,20.73
2019-03-10T12:42:25.541Z,19.96
2019-03-10T12:45:14.802Z,20.21
2019-03-10T12:48:04.239Z,20.42
2019-03-10T12:50:53.799Z,20.41
2019-03-10T12:53:42.977Z,20.07
2019-03-10T12:56:32.544Z,20.35
2019-03-10T12:59:21.805Z,20.12
2019-03-10T13:02:11.301Z,19.80
2019-03-10T13:05:00.748Z,19.75
2019-03-10T13:07:50.092Z,20.03
2019-03-10T13:10:39.308Z,19.15
2019-03-10T13:13:28.954Z,18.54
2019-03-10T13:16:17.785Z,18.68
2019-03-10T13:19:06.876Z,18.74
2019-03-10T13:21:56.117Z,17.83
2019-03-10T13:24:45.611Z,17.46
2019-03-10T13:27:34.984Z,17.70
2019-03-10T13:30:23.772Z,17.44
2019-03-10T13:33:12.819Z,17.08
2019-03-10T13:36:02.141Z,17.18
2019-03-10T13:38:51.526Z,17.03
2019-03-10T13:41:40.923Z,16.43
2019-03-10T13:44:30.381Z,15.43
2019-03-10T13:47:19.885Z,14.97
2019-03-10T13:50:10.843Z,15.17
2019-03-10T13:53:00.124Z,14.23
2019-03-10T13:55:49.326Z,13.49
2019-03-10T13:58:39.020Z,13.30
2019-03-10T14:01:28.308Z,12.95
2019-03-10T14:04:17.343Z,12.28
2019-03-10T14:07:06.892Z,12.48
2019-03-10T14:09:56.699Z,12.56
2019-03-10T14:12:46.133Z,11.77
2019-03-10T14:15:35.447Z,11.87
2019-03-10T14:18:24.867Z,11.19
2019-03-10T14:21:13.681Z,12.26
2019-03-10T14:24:02.897Z,12.01
2019-03-10T14:26:52.202Z,11.81
2019-03-10T14:29:42.622Z,10.91
2019-03-10T14:32:32.243Z,11.02
2019-03-10T14:35:21.624Z,10.76
2019-03-10T14:38:10.951Z,10.83
2019-03-10T14:41:00.372Z,10.91
2019-03-10T14:43:49.627Z,10.67
2019-03-10T14:46:38.899Z,10.62
2019-03-10T14:49:28.157Z,10.88
2019-03-10T14:52:17.125Z,11.62
2019-03-10T14:55:07.281Z,11.40
2019-03-10T14:57:56.813Z,12.67
2019-03-10T15:00:45.657Z,14.07
2019-03-10T15:03:34.996Z,15.48
2019-03-10T15:06:32.233Z,14.97
2019-03-10T15:09:21.829Z,14.57
2019-03-10T15:12:11.451Z,16.66
2019-03-10T15:15:00.968Z,18.13
2019-03-10T15:17:50.334Z,19.22
2019-03-10T15:20:39.891Z,20.19
2019-03-10T15:23:29.605Z,20.63
2019-03-10T15:26:19.098Z,20.63
2019-03-10T15:29:08.696Z,19.94
2019-03-10T15:31:57.997Z,20.90
2019-03-10T15:34:46.875Z,22.66
2019-03-10T15:37:36.332Z,23.89
2019-03-10T15:40:26.197Z,25.11
2019-03-10T15:43:17.108Z,24.55
2019-03-10T15:46:10.135Z,25.66
2019-03-10T15:48:59.706Z,26.50
2019-03-10T15:51:48.570Z,26.81
2019-03-10T15:54:37.831Z,27.47
2019-03-10T15:57:27.179Z,28.57
2019-03-10T16:00:18.080Z,28.34
2019-03-10T16:03:07.144Z,28.54
2019-03-10T16:05:56.630Z,30.81
2019-03-10T16:08:45.669Z,30.42
2019-03-10T16:11:35.237Z,30.89
2019-03-10T16:14:24.562Z,31.70
2019-03-10T16:17:13.834Z,31.51
2019-03-10T16:20:02.935Z,32.61
2019-03-10T16:22:52.243Z,32.02
2019-03-10T16:25:41.452Z,32.79
2019-03-10T16:28:31.013Z,33.30
2019-03-10T16:31:20.348Z,33.29
2019-03-10T16:34:09.574Z,33.55
2019-03-10T16:37:02.233Z,33.11
2019-03-10T16:39:50.847Z,34.42
2019-03-10T16:42:40.113Z,34.49
2019-03-10T16:45:29.404Z,35.25
2019-03-10T16:48:17.427Z,35.75
2019-03-10T16:51:05.840Z,34.76
2019-03-10T16:53:54.243Z,37.39
2019-03-10T16:56:42.120Z,36.65
2019-03-10T16:59:34.387Z,37.78
2019-03-10T17:02:26.703Z,38.35
2019-03-10T17:05:15.911Z,38.76
2019-03-10T17:08:04.451Z,38.64
2019-03-10T17:10:53.556Z,40.06
2019-03-10T17:13:42.885Z,41.19
2019-03-10T17:16:32.815Z,42.31
2019-03-10T17:19:22.504Z,41.57
2019-03-10T17:22:11.145Z,39.41
2019-03-10T17:24:59.500Z,37.91
2019-03-10T17:27:47.962Z,39.75
2019-03-10T17:30:36.340Z,41.22
2019-03-10T17:33:24.512Z,38.76
2019-03-10T17:36:12.939Z,38.96
2019-03-10T17:39:00.679Z,39.32
2019-03-10T17:41:48.689Z,38.34
2019-03-10T17:44:41.107Z,38.78
2019-03-10T17:47:27.341Z,41.54
2019-03-10T17:50:15.179Z,45.04
2019-03-10T17:53:02.684Z,44.66
2019-03-10T17:55:52.127Z,45.99
2019-03-10T17:58:40.239Z,44.02
2019-03-10T18:01:27.727Z,44.20
2019-03-10T18:04:15.804Z,44.46
2019-03-10T18:07:04.161Z,45.21
2019-03-10T18:09:52.283Z,44.81
2019-03-10T18:12:40.070Z,43.20
2019-03-10T18:15:28.216Z,43.79
2019-03-10T18:18:15.932Z,44.01
2019-03-10T18:21:04.129Z,44.56
2019-03-10T18:23:52.238Z,45.31
2019-03-10T18:26:40.627Z,46.63
2019-03-10T18:29:28.409Z,44.50
2019-03-10T18:32:16.962Z,45.31
2019-03-10T18:35:05.452Z,45.82
2019-03-10T18:37:58.861Z,45.47
2019-03-10T18:40:47.455Z,45.51
2019-03-10T18:43:35.831Z,44.88
2019-03-10T18:46:23.559Z,45.50
2019-03-10T18:49:12.954Z,45.48
2019-03-10T18:52:00.802Z,46.52
2019-03-10T18:54:48.941Z,46.98
2019-03-10T18:57:37.507Z,47.54
2019-03-10T19:00:25.787Z,47.83
2019-03-10T19:03:14.206Z,47.26
2019-03-10T19:06:02.281Z,48.59
2019-03-10T19:08:50.337Z,49.13
2019-03-10T19:11:38.868Z,49.88
2019-03-10T19:14:26.990Z,50.86
2019-03-10T19:17:15.447Z,49.91
2019-03-10T19:20:03.934Z,51.61
2019-03-10T19:22:52.284Z,51.67
2019-03-10T19:25:40.668Z,50.18
2019-03-10T19:28:28.670Z,49.85
2019-03-10T19:31:17.111Z,49.89
2019-03-10T19:34:05.687Z,51.20
2019-03-10T19:36:57.278Z,54.96
2019-03-10T19:39:42.858Z,51.10
2019-03-10T19:42:31.239Z,54.69
2019-03-10T19:45:20.256Z,57.50
2019-03-10T19:48:08.502Z,55.24
2019-03-10T19:50:56.819Z,53.71
2019-03-10T19:53:45.165Z,53.72
2019-03-10T19:56:33.189Z,53.71
2019-03-10T19:59:21.837Z,55.68
2019-03-10T20:02:10.378Z,54.72
2019-03-10T20:04:59.036Z,53.29
2019-03-10T20:07:48.195Z,55.12
2019-03-10T20:10:36.257Z,56.85
2019-03-10T20:13:24.628Z,58.35
2019-03-10T20:16:12.841Z,59.58
2019-03-10T20:19:01.223Z,60.46
2019-03-10T20:21:52.972Z,57.71
2019-03-10T20:24:41.256Z,58.11
2019-03-10T20:27:29.340Z,57.96
2019-03-10T20:30:19.342Z,58.32
2019-03-10T20:33:10.961Z,60.03
2019-03-10T20:35:59.061Z,59.33
2019-03-10T20:38:47.815Z,61.73
2019-03-10T20:41:35.807Z,62.76
2019-03-10T20:44:23.781Z,61.30
2019-03-10T20:47:14.531Z,61.68
2019-03-10T20:50:10.059Z,60.52
2019-03-10T20:52:57.760Z,61.74
2019-03-10T20:55:48.283Z,61.48
2019-03-10T20:58:35.948Z,60.76
2019-03-10T21:01:24.217Z,60.49
2019-03-10T21:04:12.454Z,60.07
2019-03-10T21:07:00.596Z,60.64
2019-03-10T21:09:48.889Z,64.13
2019-03-10T21:12:41.836Z,64.80
2019-03-10T21:15:26.797Z,62.64
2019-03-10T21:18:15.331Z,63.22
2019-03-10T21:21:05.518Z,62.88
2019-03-10T21:23:55.302Z,63.05
2019-03-10T21:26:42.870Z,65.88
2019-03-10T21:29:31.135Z,65.40
2019-03-10T21:32:19.260Z,65.16
2019-03-10T21:35:17.225Z,65.88
2019-03-10T21:37:56.864Z,66.58
2019-03-10T21:40:44.495Z,65.93
2019-03-10T21:43:32.930Z,67.13
2019-03-10T21:46:20.590Z,66.12
2019-03-10T21:49:08.385Z,66.03
2019-03-10T21:51:56.146Z,67.47
2019-03-10T21:54:44.570Z,67.73
2019-03-10T21:57:34.992Z,67.60
2019-03-10T22:00:22.778Z,70.75
2019-03-10T22:03:10.489Z,70.86
2019-03-10T22:05:58.479Z,68.98
2019-03-10T22:08:46.604Z,69.17
2019-03-10T22:11:34.181Z,69.41
2019-03-10T22:14:22.676Z,68.90
2019-03-10T22:17:11.013Z,68.50
2019-03-10T22:19:58.700Z,70.37
2019-03-10T22:22:49.543Z,70.59
2019-03-10T22:25:37.066Z,71.97
2019-03-10T22:28:25.431Z,73.50
2019-03-10T22:31:13.479Z,74.08
2019-03-10T22:34:01.554Z,72.60
2019-03-10T22:36:52.194Z,71.47
2019-03-10T22:39:40.506Z,70.74
2019-03-10T22:42:29.208Z,69.34
2019-03-10T22:45:17.418Z,68.25
2019-03-10T22:48:06.770Z,68.25
2019-03-10T22:50:54.908Z,68.56
2019-03-10T22:53:42.911Z,67.95
2019-03-10T22:56:31.231Z,69.71
2019-03-10T22:59:21.422Z,69.82
2019-03-10T23:02:09.639Z,69.86
2019-03-10T23:04:57.517Z,72.52
2019-03-10T23:07:46.109Z,72.36
2019-03-10T23:10:34.420Z,72.47
2019-03-10T23:13:24.728Z,72.34
2019-03-10T23:16:12.707Z,71.49
2019-03-10T23:19:00.579Z,73.73
2019-03-10T23:21:48.932Z,72.04
2019-03-10T23:24:37.219Z,73.05
2019-03-10T23:27:25.354Z,75.11
2019-03-10T23:30:14.067Z,74.87
2019-03-10T23:33:02.713Z,73.63
2019-03-10T23:35:51.073Z,73.05
2019-03-10T23:38:39.485Z,71.86
2019-03-10T23:41:27.107Z,72.12
2019-03-10T23:44:15.780Z,74.50
2019-03-10T23:47:03.819Z,75.03
2019-03-10T23:49:52.239Z,75.00
2019-03-10T23:52:40.627Z,73.50
2019-03-10T23:55:28.860Z,72.76
2019-03-10T23:58:16.868Z,71.15
